DLH5HU EDDB-EDDF
Flight info
| Callsign | DLH5HU |
|---|---|
| Flight time | 0h 48m |
| Altitude | 21000 |
| Route | KISUC1Q KISUC Z117 ODLUN/N0375F220 DCT ORTAG T177 ODIPI/N0366F210 T157 KERAX KERAX5A |
| Aircraft | A321/M-SDE2E3FGIJ1LORWXYZ/HB1 |
Departure
| Time | 2026-04-16 09:31 |
|---|---|
| Airport | Berlin Brandenburg Airport (EDDB) |
Arrival
| Time | 2026-04-16 10:19 |
|---|---|
| Airport | Frankfurt Main Airport (EDDF) |
| Time | Latitude | Longitude | Altitude | Speed | Heading |
|---|---|---|---|---|---|
| 2026-04-16 09:09 | 52.36282 | 13.50652 | 160 ft | 0 kts | 69° |
| 2026-04-16 09:24 | 52.36278 | 13.50634 | 155 ft | 4 kts | 71° |
| 2026-04-16 09:24 | 52.36270 | 13.50592 | 155 ft | 4 kts | 79° |
| 2026-04-16 09:24 | 52.36267 | 13.50548 | 155 ft | 4 kts | 95° |
| 2026-04-16 09:25 | 52.36274 | 13.50510 | 155 ft | 4 kts | 141° |
| 2026-04-16 09:25 | 52.36280 | 13.50503 | 155 ft | 0 kts | 159° |
| 2026-04-16 09:28 | 52.36272 | 13.50508 | 155 ft | 5 kts | 159° |
| 2026-04-16 09:28 | 52.36228 | 13.50536 | 155 ft | 12 kts | 159° |
| 2026-04-16 09:29 | 52.36117 | 13.50607 | 155 ft | 22 kts | 158° |
| 2026-04-16 09:29 | 52.35962 | 13.50709 | 155 ft | 25 kts | 158° |
| 2026-04-16 09:29 | 52.35796 | 13.50819 | 155 ft | 26 kts | 158° |
| 2026-04-16 09:29 | 52.35676 | 13.50807 | 155 ft | 17 kts | 210° |
| 2026-04-16 09:30 | 52.35602 | 13.50716 | 154 ft | 14 kts | 218° |
| 2026-04-16 09:30 | 52.35520 | 13.50610 | 154 ft | 19 kts | 218° |
| 2026-04-16 09:30 | 52.35388 | 13.50371 | 154 ft | 38 kts | 239° |
| 2026-04-16 09:30 | 52.35247 | 13.49824 | 155 ft | 76 kts | 249° |
| 2026-04-16 09:31 | 52.34971 | 13.48651 | 155 ft | 143 kts | 249° |
| 2026-04-16 09:31 | 52.34575 | 13.46931 | 516 ft | 163 kts | 248° |
| 2026-04-16 09:31 | 52.34102 | 13.45277 | 1341 ft | 159 kts | 237° |
| 2026-04-16 09:31 | 52.33368 | 13.43849 | 1916 ft | 175 kts | 228° |
| 2026-04-16 09:32 | 52.32507 | 13.42314 | 2412 ft | 189 kts | 227° |
| 2026-04-16 09:32 | 52.31605 | 13.40681 | 2903 ft | 199 kts | 229° |
| 2026-04-16 09:32 | 52.30660 | 13.38919 | 3279 ft | 213 kts | 229° |
| 2026-04-16 09:32 | 52.29637 | 13.37004 | 3572 ft | 235 kts | 230° |
| 2026-04-16 09:33 | 52.28573 | 13.35002 | 4499 ft | 229 kts | 230° |
| 2026-04-16 09:33 | 52.27533 | 13.33057 | 5448 ft | 230 kts | 231° |
| 2026-04-16 09:33 | 52.26469 | 13.31078 | 6274 ft | 234 kts | 231° |
| 2026-04-16 09:33 | 52.25389 | 13.29074 | 7087 ft | 237 kts | 232° |
| 2026-04-16 09:34 | 52.24375 | 13.26955 | 7850 ft | 237 kts | 244° |
| 2026-04-16 09:34 | 52.23667 | 13.24430 | 8269 ft | 256 kts | 251° |
| 2026-04-16 09:34 | 52.22982 | 13.21654 | 8801 ft | 269 kts | 251° |
| 2026-04-16 09:34 | 52.22283 | 13.18834 | 9565 ft | 274 kts | 251° |
| 2026-04-16 09:35 | 52.21559 | 13.15938 | 10331 ft | 277 kts | 251° |
| 2026-04-16 09:35 | 52.20813 | 13.12973 | 11073 ft | 280 kts | 251° |
| 2026-04-16 09:35 | 52.20066 | 13.10020 | 11802 ft | 283 kts | 251° |
| 2026-04-16 09:35 | 52.19309 | 13.07036 | 12554 ft | 286 kts | 250° |
| 2026-04-16 09:36 | 52.18543 | 13.04024 | 13293 ft | 289 kts | 250° |
| 2026-04-16 09:36 | 52.17768 | 13.00981 | 14033 ft | 292 kts | 250° |
| 2026-04-16 09:36 | 52.16992 | 12.97914 | 14690 ft | 295 kts | 250° |
| 2026-04-16 09:36 | 52.16286 | 12.94775 | 15338 ft | 296 kts | 257° |
| 2026-04-16 09:37 | 52.15796 | 12.91402 | 15508 ft | 317 kts | 259° |
| 2026-04-16 09:37 | 52.15290 | 12.87796 | 15688 ft | 335 kts | 259° |
| 2026-04-16 09:37 | 52.14768 | 12.84049 | 16156 ft | 343 kts | 259° |
| 2026-04-16 09:37 | 52.14236 | 12.80246 | 16780 ft | 346 kts | 259° |
| 2026-04-16 09:38 | 52.13695 | 12.76409 | 17423 ft | 348 kts | 258° |
| 2026-04-16 09:38 | 52.13150 | 12.72559 | 18053 ft | 351 kts | 258° |
| 2026-04-16 09:38 | 52.12598 | 12.68676 | 18641 ft | 353 kts | 259° |
| 2026-04-16 09:38 | 52.12052 | 12.64830 | 19193 ft | 355 kts | 259° |
| 2026-04-16 09:39 | 52.11493 | 12.60910 | 19745 ft | 357 kts | 259° |
| 2026-04-16 09:39 | 52.10921 | 12.56916 | 20302 ft | 358 kts | 259° |
| 2026-04-16 09:39 | 52.10359 | 12.53016 | 20832 ft | 360 kts | 259° |
| 2026-04-16 09:39 | 52.09784 | 12.49046 | 21327 ft | 362 kts | 259° |
| 2026-04-16 09:40 | 52.09204 | 12.45043 | 21823 ft | 365 kts | 259° |
| 2026-04-16 09:40 | 52.08623 | 12.41016 | 22330 ft | 367 kts | 259° |
| 2026-04-16 09:40 | 52.08040 | 12.36972 | 22837 ft | 369 kts | 259° |
| 2026-04-16 09:40 | 52.07261 | 12.32978 | 23316 ft | 374 kts | 250° |
| 2026-04-16 09:41 | 52.05996 | 12.29241 | 23788 ft | 381 kts | 239° |
| 2026-04-16 09:41 | 52.04406 | 12.25772 | 24197 ft | 384 kts | 237° |
| 2026-04-16 09:41 | 52.02801 | 12.22292 | 24625 ft | 385 kts | 237° |
| 2026-04-16 09:41 | 52.01197 | 12.18798 | 25027 ft | 387 kts | 237° |
| 2026-04-16 09:42 | 51.99593 | 12.15301 | 25165 ft | 385 kts | 237° |
| 2026-04-16 09:42 | 51.98022 | 12.11890 | 25185 ft | 372 kts | 237° |
| 2026-04-16 09:42 | 51.96484 | 12.08554 | 25181 ft | 368 kts | 238° |
| 2026-04-16 09:42 | 51.94957 | 12.05241 | 25185 ft | 366 kts | 238° |
| 2026-04-16 09:43 | 51.93434 | 12.01931 | 25186 ft | 366 kts | 238° |
| 2026-04-16 09:43 | 51.91913 | 11.98630 | 25189 ft | 366 kts | 238° |
| 2026-04-16 09:43 | 51.90391 | 11.95334 | 25170 ft | 366 kts | 237° |
| 2026-04-16 09:43 | 51.88862 | 11.92034 | 25185 ft | 366 kts | 237° |
| 2026-04-16 09:44 | 51.87331 | 11.88738 | 25188 ft | 366 kts | 237° |
| 2026-04-16 09:44 | 51.85801 | 11.85450 | 25188 ft | 366 kts | 237° |
| 2026-04-16 09:44 | 51.84265 | 11.82156 | 25188 ft | 366 kts | 237° |
| 2026-04-16 09:44 | 51.82722 | 11.78878 | 25188 ft | 366 kts | 237° |
| 2026-04-16 09:45 | 51.81171 | 11.75610 | 25188 ft | 366 kts | 237° |
| 2026-04-16 09:45 | 51.79651 | 11.72308 | 25192 ft | 365 kts | 239° |
| 2026-04-16 09:45 | 51.78217 | 11.68928 | 25194 ft | 364 kts | 240° |
| 2026-04-16 09:45 | 51.76830 | 11.65502 | 25195 ft | 364 kts | 241° |
| 2026-04-16 09:46 | 51.75464 | 11.62067 | 25198 ft | 364 kts | 241° |
| 2026-04-16 09:46 | 51.74099 | 11.58633 | 25199 ft | 364 kts | 241° |
| 2026-04-16 09:46 | 51.72721 | 11.55212 | 25198 ft | 364 kts | 240° |
| 2026-04-16 09:46 | 51.71327 | 11.51799 | 25175 ft | 364 kts | 240° |
| 2026-04-16 09:47 | 51.70401 | 11.49548 | 25178 ft | 364 kts | 240° |
| 2026-04-16 09:47 | 51.68999 | 11.46155 | 25179 ft | 364 kts | 240° |
| 2026-04-16 09:47 | 51.67594 | 11.42764 | 25181 ft | 364 kts | 240° |
| 2026-04-16 09:47 | 51.65730 | 11.38268 | 25183 ft | 364 kts | 240° |
| 2026-04-16 09:48 | 51.64326 | 11.34884 | 25182 ft | 364 kts | 240° |
| 2026-04-16 09:48 | 51.62923 | 11.31503 | 25182 ft | 364 kts | 240° |
| 2026-04-16 09:48 | 51.61518 | 11.28117 | 25183 ft | 364 kts | 240° |
| 2026-04-16 09:48 | 51.60114 | 11.24732 | 25185 ft | 364 kts | 240° |
| 2026-04-16 09:49 | 51.59165 | 11.22447 | 25187 ft | 364 kts | 240° |
| 2026-04-16 09:49 | 51.57759 | 11.19066 | 25189 ft | 364 kts | 240° |
| 2026-04-16 09:49 | 51.56338 | 11.15692 | 25190 ft | 365 kts | 237° |
| 2026-04-16 09:49 | 51.54629 | 11.12651 | 25198 ft | 368 kts | 229° |
| 2026-04-16 09:50 | 51.52826 | 11.09722 | 25200 ft | 368 kts | 229° |
| 2026-04-16 09:50 | 51.51020 | 11.06806 | 25183 ft | 368 kts | 229° |
| 2026-04-16 09:50 | 51.49213 | 11.03897 | 25184 ft | 368 kts | 229° |
| 2026-04-16 09:50 | 51.47403 | 11.00985 | 25193 ft | 368 kts | 229° |
| 2026-04-16 09:51 | 51.45614 | 10.98115 | 24969 ft | 359 kts | 229° |
| 2026-04-16 09:51 | 51.43868 | 10.95319 | 24728 ft | 350 kts | 229° |
| 2026-04-16 09:51 | 51.42161 | 10.92580 | 24495 ft | 346 kts | 229° |
| 2026-04-16 09:51 | 51.40491 | 10.89894 | 24258 ft | 345 kts | 229° |
| 2026-04-16 09:52 | 51.38801 | 10.87177 | 24019 ft | 344 kts | 229° |
| 2026-04-16 09:52 | 51.37116 | 10.84472 | 23794 ft | 343 kts | 229° |
| 2026-04-16 09:52 | 51.35432 | 10.81777 | 23520 ft | 342 kts | 229° |
| 2026-04-16 09:52 | 51.33750 | 10.79096 | 23244 ft | 341 kts | 229° |
| 2026-04-16 09:53 | 51.32074 | 10.76430 | 22971 ft | 340 kts | 229° |
| 2026-04-16 09:53 | 51.30402 | 10.73771 | 22691 ft | 338 kts | 229° |
| 2026-04-16 09:53 | 51.28742 | 10.71128 | 22422 ft | 337 kts | 229° |
| 2026-04-16 09:53 | 51.27083 | 10.68488 | 22222 ft | 336 kts | 229° |
| 2026-04-16 09:54 | 51.25430 | 10.65864 | 22208 ft | 336 kts | 228° |
| 2026-04-16 09:54 | 51.23771 | 10.63236 | 22037 ft | 336 kts | 228° |
| 2026-04-16 09:54 | 51.22117 | 10.60611 | 21778 ft | 334 kts | 228° |
| 2026-04-16 09:54 | 51.20469 | 10.58005 | 21520 ft | 333 kts | 228° |
| 2026-04-16 09:55 | 51.18823 | 10.55410 | 21258 ft | 332 kts | 228° |
| 2026-04-16 09:55 | 51.17181 | 10.52826 | 21003 ft | 331 kts | 228° |
| 2026-04-16 09:55 | 51.15545 | 10.50251 | 20750 ft | 330 kts | 228° |
| 2026-04-16 09:55 | 51.13913 | 10.47679 | 20501 ft | 329 kts | 228° |
| 2026-04-16 09:56 | 51.12286 | 10.45122 | 20250 ft | 328 kts | 228° |
| 2026-04-16 09:56 | 51.10664 | 10.42576 | 19994 ft | 328 kts | 228° |
| 2026-04-16 09:56 | 51.09042 | 10.40033 | 19749 ft | 326 kts | 228° |
| 2026-04-16 09:56 | 51.07431 | 10.37503 | 19506 ft | 325 kts | 228° |
| 2026-04-16 09:57 | 51.05819 | 10.34975 | 19260 ft | 325 kts | 228° |
| 2026-04-16 09:57 | 51.04214 | 10.32458 | 19029 ft | 324 kts | 227° |
| 2026-04-16 09:57 | 51.02614 | 10.29949 | 18797 ft | 323 kts | 227° |
| 2026-04-16 09:57 | 51.01019 | 10.27447 | 18558 ft | 322 kts | 227° |
| 2026-04-16 09:58 | 50.99426 | 10.24955 | 18291 ft | 321 kts | 227° |
| 2026-04-16 09:58 | 50.97834 | 10.22474 | 18020 ft | 320 kts | 227° |
| 2026-04-16 09:58 | 50.96250 | 10.20009 | 17748 ft | 319 kts | 227° |
| 2026-04-16 09:58 | 50.94668 | 10.17551 | 17479 ft | 318 kts | 227° |
| 2026-04-16 09:59 | 50.93090 | 10.15098 | 17201 ft | 317 kts | 227° |
| 2026-04-16 09:59 | 50.91540 | 10.12688 | 16964 ft | 316 kts | 227° |
| 2026-04-16 09:59 | 50.89954 | 10.10230 | 16702 ft | 315 kts | 227° |
| 2026-04-16 09:59 | 50.88413 | 10.07842 | 16431 ft | 314 kts | 227° |
| 2026-04-16 10:00 | 50.86854 | 10.05428 | 16175 ft | 313 kts | 227° |
| 2026-04-16 10:00 | 50.85300 | 10.03018 | 15922 ft | 312 kts | 227° |
| 2026-04-16 10:00 | 50.83748 | 10.00616 | 15671 ft | 311 kts | 227° |
| 2026-04-16 10:01 | 50.80659 | 9.95844 | 15172 ft | 310 kts | 227° |
| 2026-04-16 10:01 | 50.79116 | 9.93465 | 14927 ft | 309 kts | 227° |
| 2026-04-16 10:01 | 50.77581 | 9.91100 | 14683 ft | 308 kts | 227° |
| 2026-04-16 10:01 | 50.76046 | 9.88739 | 14443 ft | 307 kts | 227° |
| 2026-04-16 10:02 | 50.74517 | 9.86387 | 14204 ft | 306 kts | 226° |
| 2026-04-16 10:02 | 50.73000 | 9.84055 | 13956 ft | 303 kts | 226° |
| 2026-04-16 10:02 | 50.71487 | 9.81736 | 13678 ft | 302 kts | 226° |
| 2026-04-16 10:02 | 50.69984 | 9.79432 | 13423 ft | 301 kts | 226° |
| 2026-04-16 10:03 | 50.68480 | 9.77130 | 13153 ft | 300 kts | 226° |
| 2026-04-16 10:03 | 50.66984 | 9.74843 | 12890 ft | 300 kts | 226° |
| 2026-04-16 10:03 | 50.65489 | 9.72562 | 12627 ft | 298 kts | 226° |
| 2026-04-16 10:03 | 50.64000 | 9.70285 | 12368 ft | 298 kts | 226° |
| 2026-04-16 10:04 | 50.62515 | 9.68017 | 12110 ft | 297 kts | 226° |
| 2026-04-16 10:04 | 50.61034 | 9.65757 | 11847 ft | 296 kts | 226° |
| 2026-04-16 10:04 | 50.59555 | 9.63504 | 11601 ft | 295 kts | 226° |
| 2026-04-16 10:04 | 50.58074 | 9.61251 | 11340 ft | 295 kts | 226° |
| 2026-04-16 10:05 | 50.56601 | 9.59017 | 11216 ft | 294 kts | 226° |
| 2026-04-16 10:05 | 50.55130 | 9.56786 | 11218 ft | 295 kts | 226° |
| 2026-04-16 10:05 | 50.53654 | 9.54546 | 11220 ft | 295 kts | 226° |
| 2026-04-16 10:05 | 50.52179 | 9.52306 | 11007 ft | 294 kts | 226° |
| 2026-04-16 10:06 | 50.50707 | 9.50078 | 10751 ft | 293 kts | 226° |
| 2026-04-16 10:06 | 50.49242 | 9.47862 | 10509 ft | 292 kts | 226° |
| 2026-04-16 10:06 | 50.47786 | 9.45661 | 10260 ft | 290 kts | 226° |
| 2026-04-16 10:06 | 50.46336 | 9.43473 | 10003 ft | 288 kts | 225° |
| 2026-04-16 10:07 | 50.44907 | 9.41324 | 9830 ft | 281 kts | 225° |
| 2026-04-16 10:07 | 50.43495 | 9.39202 | 9697 ft | 281 kts | 226° |
| 2026-04-16 10:07 | 50.42092 | 9.37088 | 9563 ft | 280 kts | 226° |
| 2026-04-16 10:07 | 50.40709 | 9.35002 | 9438 ft | 279 kts | 226° |
| 2026-04-16 10:08 | 50.39310 | 9.32898 | 9302 ft | 278 kts | 225° |
| 2026-04-16 10:08 | 50.37892 | 9.30769 | 9172 ft | 278 kts | 225° |
| 2026-04-16 10:08 | 50.36517 | 9.28704 | 9040 ft | 278 kts | 225° |
| 2026-04-16 10:08 | 50.35123 | 9.26607 | 8910 ft | 278 kts | 225° |
| 2026-04-16 10:09 | 50.33737 | 9.24526 | 8786 ft | 275 kts | 225° |
| 2026-04-16 10:09 | 50.32357 | 9.22458 | 8604 ft | 274 kts | 225° |
| 2026-04-16 10:09 | 50.30985 | 9.20409 | 8284 ft | 272 kts | 225° |
| 2026-04-16 10:09 | 50.29620 | 9.18370 | 7966 ft | 271 kts | 225° |
| 2026-04-16 10:10 | 50.28264 | 9.16342 | 7631 ft | 269 kts | 226° |
| 2026-04-16 10:10 | 50.26920 | 9.14331 | 7312 ft | 266 kts | 226° |
| 2026-04-16 10:10 | 50.25589 | 9.12344 | 6986 ft | 263 kts | 225° |
| 2026-04-16 10:10 | 50.24269 | 9.10378 | 6667 ft | 261 kts | 225° |
| 2026-04-16 10:11 | 50.22958 | 9.08434 | 6337 ft | 259 kts | 225° |
| 2026-04-16 10:11 | 50.21661 | 9.06512 | 6010 ft | 256 kts | 225° |
| 2026-04-16 10:11 | 50.20377 | 9.04608 | 5696 ft | 253 kts | 224° |
| 2026-04-16 10:11 | 50.19104 | 9.02721 | 5379 ft | 251 kts | 224° |
| 2026-04-16 10:12 | 50.17858 | 9.00873 | 5253 ft | 241 kts | 224° |
| 2026-04-16 10:12 | 50.16670 | 8.99111 | 5154 ft | 231 kts | 224° |
| 2026-04-16 10:12 | 50.15512 | 8.97393 | 5054 ft | 229 kts | 225° |
| 2026-04-16 10:12 | 50.14559 | 8.95433 | 5001 ft | 228 kts | 244° |
| 2026-04-16 10:13 | 50.13980 | 8.93130 | 5003 ft | 229 kts | 250° |
| 2026-04-16 10:13 | 50.13440 | 8.90802 | 5002 ft | 226 kts | 250° |
| 2026-04-16 10:13 | 50.12930 | 8.88621 | 5015 ft | 208 kts | 250° |
| 2026-04-16 10:13 | 50.12450 | 8.86577 | 4980 ft | 193 kts | 249° |
| 2026-04-16 10:14 | 50.11993 | 8.84637 | 4810 ft | 188 kts | 249° |
| 2026-04-16 10:14 | 50.11545 | 8.82734 | 4578 ft | 184 kts | 250° |
| 2026-04-16 10:14 | 50.11103 | 8.80860 | 4310 ft | 183 kts | 249° |
| 2026-04-16 10:14 | 50.10666 | 8.79008 | 4051 ft | 181 kts | 250° |
| 2026-04-16 10:15 | 50.10237 | 8.77191 | 3796 ft | 176 kts | 249° |
| 2026-04-16 10:15 | 50.09822 | 8.75432 | 3551 ft | 173 kts | 250° |
| 2026-04-16 10:15 | 50.09404 | 8.73665 | 3301 ft | 173 kts | 250° |
| 2026-04-16 10:15 | 50.08988 | 8.71907 | 3047 ft | 171 kts | 250° |
| 2026-04-16 10:16 | 50.08577 | 8.70176 | 2801 ft | 169 kts | 251° |
| 2026-04-16 10:16 | 50.08172 | 8.68467 | 2553 ft | 167 kts | 250° |
| 2026-04-16 10:16 | 50.07774 | 8.66788 | 2337 ft | 160 kts | 250° |
| 2026-04-16 10:16 | 50.07409 | 8.65248 | 2106 ft | 146 kts | 249° |
| 2026-04-16 10:17 | 50.07071 | 8.63826 | 1892 ft | 140 kts | 248° |
| 2026-04-16 10:17 | 50.06736 | 8.62417 | 1694 ft | 138 kts | 249° |
| 2026-04-16 10:17 | 50.06403 | 8.61019 | 1496 ft | 135 kts | 249° |
| 2026-04-16 10:17 | 50.06071 | 8.59621 | 1300 ft | 138 kts | 249° |
| 2026-04-16 10:18 | 50.05738 | 8.58222 | 1105 ft | 136 kts | 248° |
| 2026-04-16 10:18 | 50.05404 | 8.56824 | 899 ft | 137 kts | 247° |
| 2026-04-16 10:18 | 50.05066 | 8.55405 | 702 ft | 141 kts | 246° |
| 2026-04-16 10:18 | 50.04724 | 8.53976 | 508 ft | 141 kts | 247° |
| 2026-04-16 10:19 | 50.04385 | 8.52554 | 357 ft | 134 kts | 250° |
| 2026-04-16 10:19 | 50.04121 | 8.51441 | 330 ft | 71 kts | 250° |
| 2026-04-16 10:19 | 50.04016 | 8.51032 | 326 ft | 12 kts | 226° |
| 2026-04-16 10:19 | 50.03948 | 8.50965 | 325 ft | 13 kts | 218° |
| 2026-04-16 10:20 | 50.03874 | 8.50874 | 324 ft | 14 kts | 218° |
| 2026-04-16 10:20 | 50.03802 | 8.50858 | 330 ft | 9 kts | 139° |
| 2026-04-16 10:20 | 50.03813 | 8.50970 | 331 ft | 16 kts | 81° |
| 2026-04-16 10:20 | 50.03842 | 8.51171 | 335 ft | 22 kts | 71° |
| 2026-04-16 10:21 | 50.03887 | 8.51434 | 336 ft | 28 kts | 79° |
| 2026-04-16 10:21 | 50.03965 | 8.51727 | 336 ft | 32 kts | 66° |
| 2026-04-16 10:21 | 50.04054 | 8.52068 | 338 ft | 36 kts | 70° |
| 2026-04-16 10:21 | 50.04145 | 8.52438 | 353 ft | 37 kts | 69° |
| 2026-04-16 10:22 | 50.04226 | 8.52789 | 358 ft | 33 kts | 70° |
| 2026-04-16 10:22 | 50.04305 | 8.53117 | 359 ft | 31 kts | 70° |
| 2026-04-16 10:22 | 50.04376 | 8.53409 | 373 ft | 26 kts | 71° |
| 2026-04-16 10:22 | 50.04406 | 8.53678 | 375 ft | 25 kts | 84° |
| 2026-04-16 10:23 | 50.04423 | 8.53953 | 375 ft | 26 kts | 86° |
| 2026-04-16 10:23 | 50.04445 | 8.54235 | 375 ft | 27 kts | 84° |
| 2026-04-16 10:23 | 50.04442 | 8.54539 | 372 ft | 31 kts | 104° |
| 2026-04-16 10:23 | 50.04296 | 8.54786 | 356 ft | 34 kts | 157° |
| 2026-04-16 10:24 | 50.04139 | 8.54870 | 353 ft | 9 kts | 160° |
| 2026-04-16 10:24 | 50.04084 | 8.54902 | 354 ft | 7 kts | 160° |
| 2026-04-16 10:24 | 50.04044 | 8.54925 | 356 ft | 6 kts | 160° |
| 2026-04-16 10:24 | 50.03992 | 8.54956 | 355 ft | 12 kts | 159° |
| 2026-04-16 10:25 | 50.03881 | 8.55029 | 352 ft | 20 kts | 139° |
| 2026-04-16 10:25 | 50.03880 | 8.55238 | 351 ft | 23 kts | 71° |
| 2026-04-16 10:25 | 50.03944 | 8.55514 | 356 ft | 30 kts | 70° |
| 2026-04-16 10:25 | 50.04021 | 8.55838 | 354 ft | 31 kts | 71° |
| 2026-04-16 10:26 | 50.04128 | 8.55934 | 355 ft | 13 kts | 356° |
| 2026-04-16 10:26 | 50.04168 | 8.55925 | 360 ft | 1 kts | 343° |
| 2026-04-16 10:26 | 50.04169 | 8.55924 | 359 ft | 0 kts | 343° |
| 2026-04-16 10:26 | 50.04178 | 8.55920 | 357 ft | 5 kts | 344° |
| 2026-04-16 10:27 | 50.04246 | 8.55944 | 358 ft | 16 kts | 18° |
| 2026-04-16 10:27 | 50.04381 | 8.55919 | 358 ft | 24 kts | 352° |
| 2026-04-16 10:27 | 50.04559 | 8.56017 | 362 ft | 32 kts | 52° |
| 2026-04-16 10:27 | 50.04643 | 8.56329 | 356 ft | 30 kts | 72° |
| 2026-04-16 10:28 | 50.04722 | 8.56589 | 361 ft | 16 kts | 52° |
| 2026-04-16 10:28 | 50.04753 | 8.56668 | 361 ft | 4 kts | 86° |
| 2026-04-16 10:28 | 50.04746 | 8.56702 | 359 ft | 2 kts | 111° |
| 2026-04-16 10:28 | 50.04742 | 8.56717 | 360 ft | 1 kts | 112° |
| 2026-04-16 10:29 | 50.04737 | 8.56734 | 361 ft | 0 kts | 114° |
| 2026-04-16 10:29 | 50.04737 | 8.56736 | 361 ft | 0 kts | 114° |